createdAt,value
2022-11-30T00:01:32.549Z,25.33
2022-11-30T00:04:00.726Z,23.20
2022-11-30T00:06:30.199Z,27.20
2022-11-30T00:08:59.876Z,27.43
2022-11-30T00:11:29.757Z,24.23
2022-11-30T00:14:00.890Z,24.17
2022-11-30T00:16:29.102Z,22.80
2022-11-30T00:18:57.322Z,23.80
2022-11-30T00:21:27.651Z,22.70
2022-11-30T00:23:57.183Z,22.43
2022-11-30T00:26:25.376Z,22.43
2022-11-30T00:28:53.932Z,22.67
2022-11-30T00:31:22.108Z,23.10
2022-11-30T00:33:50.472Z,23.80
2022-11-30T00:36:22.939Z,23.70
2022-11-30T00:38:52.791Z,22.90
2022-11-30T00:41:22.931Z,21.40
2022-11-30T00:43:51.127Z,26.50
2022-11-30T00:46:19.427Z,21.60
2022-11-30T00:48:48.150Z,21.93
2022-11-30T00:51:16.489Z,21.50
2022-11-30T00:53:45.243Z,22.87
2022-11-30T00:56:13.384Z,19.07
2022-11-30T00:58:42.934Z,19.83
2022-11-30T01:01:11.197Z,22.93
2022-11-30T01:03:39.490Z,25.40
2022-11-30T01:06:10.796Z,20.70
2022-11-30T01:08:39.142Z,26.63
2022-11-30T01:11:10.610Z,22.10
2022-11-30T01:13:38.965Z,20.70
2022-11-30T01:16:15.688Z,22.37
2022-11-30T01:18:45.260Z,20.30
2022-11-30T01:21:16.571Z,21.33
2022-11-30T01:23:45.830Z,19.93
2022-11-30T01:26:15.019Z,19.50
2022-11-30T01:28:44.092Z,19.73
2022-11-30T01:31:15.418Z,17.40
2022-11-30T01:33:44.049Z,21.40
2022-11-30T01:36:15.139Z,18.70
2022-11-30T01:38:47.163Z,17.00
2022-11-30T01:41:19.756Z,16.70
2022-11-30T01:43:51.189Z,15.60
2022-11-30T01:46:35.559Z,14.77
2022-11-30T01:49:14.698Z,18.40
2022-11-30T01:51:47.978Z,13.20
2022-11-30T01:54:21.227Z,14.73
2022-11-30T01:56:55.062Z,13.80
2022-11-30T01:59:25.455Z,13.07
2022-11-30T02:01:56.233Z,18.87
2022-11-30T02:04:30.125Z,13.33
2022-11-30T02:06:59.358Z,13.97
2022-11-30T02:09:28.745Z,13.07
2022-11-30T02:11:57.980Z,11.30
2022-11-30T02:14:36.343Z,13.60
2022-11-30T02:17:19.038Z,10.60
2022-11-30T02:20:28.838Z,11.40
2022-11-30T02:23:15.704Z,17.97
2022-11-30T02:25:53.559Z,9.77
2022-11-30T02:29:01.558Z,11.60
2022-11-30T02:31:36.944Z,15.97
2022-11-30T02:34:07.904Z,13.27
2022-11-30T02:36:36.732Z,13.40
2022-11-30T02:39:05.994Z,10.30
2022-11-30T02:41:38.784Z,11.63
2022-11-30T02:44:11.753Z,12.60
2022-11-30T02:47:10.832Z,13.80
2022-11-30T02:49:49.525Z,12.27
2022-11-30T02:52:19.786Z,11.77
2022-11-30T02:54:48.227Z,12.10
2022-11-30T02:57:16.738Z,13.83
2022-11-30T02:59:46.333Z,11.67
2022-11-30T03:02:14.987Z,11.00
2022-11-30T03:04:43.186Z,10.73
2022-11-30T03:07:11.409Z,10.10
2022-11-30T03:09:39.592Z,12.00
2022-11-30T03:12:08.324Z,9.67
2022-11-30T03:14:36.796Z,11.80
2022-11-30T03:17:06.995Z,10.80
2022-11-30T03:19:35.674Z,12.40
2022-11-30T03:22:03.986Z,10.47
2022-11-30T03:24:32.115Z,11.30
2022-11-30T03:27:00.524Z,11.03
2022-11-30T03:29:28.732Z,11.83
2022-11-30T03:31:56.871Z,14.67
2022-11-30T03:37:12.905Z,7.70
2022-11-30T03:39:44.577Z,9.80
2022-11-30T03:42:12.791Z,8.87
2022-11-30T03:44:40.895Z,8.97
2022-11-30T03:47:09.024Z,8.30
2022-11-30T03:49:37.145Z,9.40
2022-11-30T03:52:05.813Z,7.90
2022-11-30T03:54:35.366Z,9.13
2022-11-30T03:57:03.478Z,9.07
2022-11-30T03:59:31.567Z,8.30
2022-11-30T04:01:59.709Z,8.60
2022-11-30T04:04:27.853Z,12.80
2022-11-30T04:06:56.015Z,9.37
2022-11-30T04:09:24.153Z,8.40
2022-11-30T04:11:53.910Z,10.70
2022-11-30T04:14:21.995Z,8.23
2022-11-30T04:16:50.131Z,9.63
2022-11-30T04:19:18.252Z,11.57
2022-11-30T04:21:46.358Z,8.43
2022-11-30T04:24:14.540Z,10.03
2022-11-30T04:26:42.654Z,9.10
2022-11-30T04:29:12.208Z,7.03
2022-11-30T04:31:40.394Z,8.27
2022-11-30T04:34:08.832Z,7.87
2022-11-30T04:36:36.951Z,9.00
2022-11-30T04:39:05.270Z,8.23
2022-11-30T04:41:33.390Z,7.97
2022-11-30T04:44:01.494Z,7.70
2022-11-30T04:46:31.001Z,9.23
2022-11-30T04:48:59.142Z,10.23
2022-11-30T04:51:27.264Z,8.07
2022-11-30T04:53:55.363Z,8.73
2022-11-30T04:56:23.471Z,12.80
2022-11-30T04:58:51.676Z,9.00
2022-11-30T05:01:20.099Z,10.00
2022-11-30T05:03:49.769Z,8.13
2022-11-30T05:06:17.894Z,9.03
2022-11-30T05:08:46.057Z,7.73
2022-11-30T05:11:14.190Z,8.93
2022-11-30T05:13:42.376Z,8.60
2022-11-30T05:16:10.828Z,7.53
2022-11-30T05:18:39.042Z,8.47
2022-11-30T05:21:08.738Z,8.30
2022-11-30T05:23:36.867Z,9.73
2022-11-30T05:26:05.353Z,8.90
2022-11-30T05:28:33.553Z,9.53
2022-11-30T05:31:05.537Z,10.93
2022-11-30T05:33:34.507Z,9.87
2022-11-30T05:36:08.831Z,10.77
2022-11-30T05:38:40.209Z,8.90
2022-11-30T05:41:08.404Z,7.67
2022-11-30T05:43:36.572Z,9.40
2022-11-30T05:46:07.770Z,8.30
2022-11-30T05:48:36.406Z,9.53
2022-11-30T05:51:09.085Z,9.83
2022-11-30T05:53:37.269Z,7.10
2022-11-30T05:56:09.448Z,8.33
2022-11-30T05:58:37.634Z,8.83
2022-11-30T06:01:06.556Z,8.30
2022-11-30T06:03:36.584Z,13.13
2022-11-30T06:06:04.914Z,9.13
2022-11-30T06:08:33.148Z,9.20
2022-11-30T06:11:02.325Z,9.87
2022-11-30T06:13:32.669Z,8.60
2022-11-30T06:16:01.163Z,10.23
2022-11-30T06:18:29.731Z,7.10
2022-11-30T06:21:02.507Z,9.90
2022-11-30T06:23:31.372Z,7.90
2022-11-30T06:25:59.941Z,9.87
2022-11-30T06:28:28.089Z,6.93
2022-11-30T06:31:01.714Z,8.67
2022-11-30T06:33:30.398Z,6.67
2022-11-30T06:35:58.879Z,7.17
2022-11-30T06:38:27.546Z,10.63
2022-11-30T06:40:55.785Z,12.80
2022-11-30T06:43:23.991Z,17.00
2022-11-30T06:45:52.158Z,13.50
2022-11-30T06:48:22.926Z,9.37
2022-11-30T06:50:51.074Z,11.07
2022-11-30T06:53:19.221Z,10.67
2022-11-30T06:55:47.511Z,12.50
2022-11-30T06:58:15.829Z,15.23
2022-11-30T07:00:44.329Z,10.20
2022-11-30T07:03:13.643Z,15.90
2022-11-30T07:05:46.424Z,14.43
2022-11-30T07:08:16.138Z,10.63
2022-11-30T07:10:46.518Z,13.20
2022-11-30T07:13:17.143Z,11.10
2022-11-30T07:15:45.872Z,9.70
2022-11-30T07:18:14.201Z,9.23
2022-11-30T07:20:43.875Z,11.07
2022-11-30T07:23:29.899Z,8.70
2022-11-30T07:26:09.419Z,9.73
2022-11-30T07:28:40.019Z,11.60
2022-11-30T07:31:20.205Z,11.83
2022-11-30T07:33:49.689Z,14.13
2022-11-30T07:36:21.711Z,11.77
2022-11-30T07:38:50.024Z,13.40
2022-11-30T07:41:19.306Z,15.73
2022-11-30T07:43:47.557Z,15.10
2022-11-30T07:46:17.939Z,15.63
2022-11-30T07:48:47.530Z,22.23
2022-11-30T07:51:19.412Z,19.90
2022-11-30T07:53:48.101Z,21.20
2022-11-30T07:56:18.852Z,21.60
2022-11-30T07:58:47.491Z,22.23
2022-11-30T08:01:19.014Z,21.10
2022-11-30T08:03:47.251Z,21.90
2022-11-30T08:06:20.291Z,24.30
2022-11-30T08:08:51.058Z,22.03
2022-11-30T08:11:21.790Z,20.57
2022-11-30T08:13:50.261Z,26.00
2022-11-30T08:16:21.022Z,23.40
2022-11-30T08:18:49.978Z,23.47
2022-11-30T08:21:21.646Z,25.43
2022-11-30T08:23:52.727Z,22.63
2022-11-30T08:26:23.261Z,23.97
2022-11-30T08:28:53.184Z,20.63
2022-11-30T08:31:24.580Z,26.97
2022-11-30T08:33:57.415Z,25.50
2022-11-30T08:36:28.912Z,26.17
2022-11-30T08:38:59.425Z,25.23
2022-11-30T08:41:28.359Z,23.13
2022-11-30T08:43:56.762Z,25.53
2022-11-30T08:49:23.138Z,24.47
2022-11-30T08:54:46.793Z,23.70
2022-11-30T08:57:16.312Z,27.17
2022-11-30T08:59:44.822Z,22.60
2022-11-30T09:02:14.573Z,25.03
2022-11-30T09:04:42.750Z,24.50
2022-11-30T09:07:12.665Z,22.90
2022-11-30T09:09:40.938Z,28.77
2022-11-30T09:12:09.555Z,29.10
2022-11-30T09:14:37.861Z,23.63
2022-11-30T09:17:06.386Z,23.47
2022-11-30T09:19:34.562Z,24.43
2022-11-30T09:22:02.684Z,28.97
2022-11-30T09:24:32.263Z,26.60
2022-11-30T09:27:00.454Z,25.43
2022-11-30T09:29:28.592Z,23.97
2022-11-30T09:31:56.736Z,22.40
2022-11-30T09:34:24.966Z,18.10
2022-11-30T09:36:53.161Z,18.53
2022-11-30T09:39:21.314Z,16.97
2022-11-30T09:42:25.830Z,21.00
2022-11-30T09:45:04.512Z,15.80
2022-11-30T09:47:50.346Z,17.53
2022-11-30T09:50:22.287Z,19.20
2022-11-30T09:52:53.669Z,20.30
2022-11-30T09:55:28.840Z,16.67
2022-11-30T09:58:02.708Z,16.43
2022-11-30T10:00:31.230Z,16.87
2022-11-30T10:03:04.336Z,14.67
2022-11-30T10:05:47.803Z,19.10
2022-11-30T10:08:50.644Z,19.13
2022-11-30T10:11:39.771Z,17.47
2022-11-30T10:14:26.032Z,18.07
2022-11-30T10:17:03.370Z,14.27
2022-11-30T10:19:56.500Z,15.30
2022-11-30T10:22:32.177Z,17.50
2022-11-30T10:25:13.885Z,15.97
2022-11-30T10:27:51.677Z,16.50
2022-11-30T10:30:31.192Z,14.57
2022-11-30T10:33:06.563Z,17.50
2022-11-30T10:35:40.438Z,18.37
2022-11-30T10:38:17.271Z,14.13
2022-11-30T10:40:52.457Z,16.50
2022-11-30T10:43:28.428Z,19.20
2022-11-30T10:45:58.030Z,17.27
2022-11-30T10:48:34.106Z,13.93
2022-11-30T10:51:04.516Z,22.47
2022-11-30T10:53:33.479Z,25.00
2022-11-30T10:56:07.494Z,17.80
2022-11-30T10:58:40.798Z,14.13
2022-11-30T11:01:12.649Z,15.17
2022-11-30T11:03:40.917Z,12.40
2022-11-30T11:06:17.179Z,13.33
2022-11-30T11:08:46.952Z,16.70
2022-11-30T11:11:34.453Z,17.10
2022-11-30T11:14:21.823Z,12.80
2022-11-30T11:16:57.573Z,11.70
2022-11-30T11:19:34.345Z,13.47
2022-11-30T11:22:05.893Z,12.83
2022-11-30T11:24:35.299Z,9.73
2022-11-30T11:27:03.638Z,11.00
2022-11-30T11:29:34.588Z,8.43
2022-11-30T11:32:20.207Z,10.40
2022-11-30T11:34:51.223Z,9.80
2022-11-30T11:37:23.947Z,10.90
2022-11-30T11:40:11.367Z,11.27
2022-11-30T11:42:48.177Z,10.20
2022-11-30T11:45:20.724Z,11.60
2022-11-30T11:48:00.612Z,8.70
2022-11-30T11:51:05.100Z,11.30
2022-11-30T11:53:26.376Z,12.60
2022-11-30T11:56:00.428Z,11.73
2022-11-30T11:58:39.173Z,12.97
2022-11-30T12:01:38.713Z,13.23
2022-11-30T12:04:28.548Z,15.73
2022-11-30T12:06:58.277Z,14.67
2022-11-30T12:09:33.916Z,14.13
2022-11-30T12:12:02.160Z,17.80
2022-11-30T12:14:34.054Z,18.20
2022-11-30T12:17:32.059Z,15.73
2022-11-30T12:20:14.127Z,21.90
2022-11-30T12:23:06.233Z,20.53
2022-11-30T12:25:41.137Z,16.10
2022-11-30T12:28:24.127Z,13.63
2022-11-30T12:31:11.539Z,16.03
2022-11-30T12:33:58.847Z,16.00
2022-11-30T12:36:42.108Z,15.27
2022-11-30T12:39:18.073Z,13.60
2022-11-30T12:41:52.981Z,15.30
2022-11-30T12:44:41.912Z,13.80
2022-11-30T12:47:26.674Z,17.63
2022-11-30T12:50:23.913Z,14.70
2022-11-30T12:53:05.354Z,15.60
2022-11-30T12:55:41.702Z,19.47
2022-11-30T12:58:22.023Z,14.10
2022-11-30T13:01:11.138Z,15.57
2022-11-30T13:03:49.457Z,19.07
2022-11-30T13:06:22.311Z,22.57
2022-11-30T13:09:00.734Z,16.27
2022-11-30T13:11:36.187Z,18.77
2022-11-30T13:14:13.072Z,19.03
2022-11-30T13:16:42.306Z,22.53
2022-11-30T13:19:29.535Z,21.40
2022-11-30T13:22:04.268Z,27.27
2022-11-30T13:24:40.829Z,23.97
2022-11-30T13:27:19.223Z,22.30
2022-11-30T13:30:10.565Z,22.73
2022-11-30T13:35:46.222Z,29.60
2022-11-30T13:38:36.380Z,28.17
2022-11-30T13:41:09.609Z,25.73
2022-11-30T13:43:43.720Z,32.20
2022-11-30T13:46:17.084Z,28.90
2022-11-30T13:48:46.671Z,20.90
2022-11-30T13:51:35.330Z,28.67
2022-11-30T13:54:40.815Z,24.20
2022-11-30T13:58:06.709Z,24.90
2022-11-30T14:01:03.099Z,21.10
2022-11-30T14:03:32.525Z,23.67
2022-11-30T14:06:02.941Z,23.77
2022-11-30T14:08:37.729Z,22.23
2022-11-30T14:11:46.077Z,23.97
2022-11-30T14:14:46.443Z,22.13
2022-11-30T14:17:19.272Z,24.83
2022-11-30T14:19:50.785Z,21.20
2022-11-30T14:22:19.721Z,21.90
2022-11-30T14:24:49.933Z,21.93
2022-11-30T14:27:22.368Z,18.77
2022-11-30T14:29:55.808Z,25.93
2022-11-30T14:32:40.266Z,20.70
2022-11-30T14:35:12.903Z,25.23
2022-11-30T14:37:47.330Z,26.80
2022-11-30T14:40:21.834Z,24.00
2022-11-30T14:42:52.825Z,20.73
2022-11-30T14:45:26.450Z,29.57
2022-11-30T14:48:06.547Z,24.97
2022-11-30T14:50:36.715Z,25.57
2022-11-30T14:53:28.082Z,27.00
2022-11-30T14:56:02.203Z,24.13
2022-11-30T14:58:39.106Z,25.00
2022-11-30T15:01:23.117Z,24.50
2022-11-30T15:03:54.778Z,23.47
2022-11-30T15:06:30.141Z,24.33
2022-11-30T15:09:01.271Z,21.80
2022-11-30T15:11:30.156Z,19.47
2022-11-30T15:14:09.887Z,25.47
2022-11-30T15:16:48.026Z,22.30
2022-11-30T15:19:23.281Z,18.10
2022-11-30T15:21:53.597Z,24.37
2022-11-30T15:24:22.403Z,19.33
2022-11-30T15:26:57.078Z,27.60
2022-11-30T15:29:30.352Z,21.20
2022-11-30T15:32:02.107Z,18.90
2022-11-30T15:34:39.915Z,21.40
2022-11-30T15:37:08.589Z,20.83
2022-11-30T15:39:37.276Z,19.83
2022-11-30T15:42:06.283Z,22.13
2022-11-30T15:44:41.975Z,20.17
2022-11-30T15:47:27.252Z,17.70
2022-11-30T15:49:56.782Z,18.67
2022-11-30T15:52:29.029Z,15.43
2022-11-30T15:54:59.728Z,17.00
2022-11-30T15:57:29.021Z,15.90
2022-11-30T16:00:22.039Z,18.43
2022-11-30T16:02:51.707Z,19.37
2022-11-30T16:05:27.689Z,15.53
2022-11-30T16:07:59.875Z,16.40
2022-11-30T16:10:34.088Z,13.50
2022-11-30T16:13:02.865Z,14.37
2022-11-30T16:15:35.071Z,12.10
2022-11-30T16:18:18.926Z,11.60
2022-11-30T16:20:51.613Z,11.40
2022-11-30T16:23:20.536Z,14.60
2022-11-30T16:25:51.220Z,13.83
2022-11-30T16:28:21.403Z,12.97
2022-11-30T16:30:51.036Z,14.00
2022-11-30T16:33:22.877Z,13.30
2022-11-30T16:35:56.822Z,13.80
2022-11-30T16:38:25.911Z,18.87
2022-11-30T16:40:55.659Z,17.37
2022-11-30T16:43:26.056Z,18.87
2022-11-30T16:45:54.266Z,16.80
2022-11-30T16:48:23.822Z,17.27
2022-11-30T16:50:52.463Z,16.67
2022-11-30T16:53:22.803Z,16.47
2022-11-30T16:55:53.053Z,17.60
2022-11-30T16:58:21.500Z,15.87
2022-11-30T17:00:49.873Z,16.60
2022-11-30T17:03:23.610Z,15.23
2022-11-30T17:05:51.743Z,16.10
2022-11-30T17:08:19.856Z,15.77
2022-11-30T17:10:53.624Z,14.20
2022-11-30T17:13:22.716Z,14.60
2022-11-30T17:15:51.324Z,18.87
2022-11-30T17:18:19.526Z,14.20
2022-11-30T17:20:49.072Z,16.00
2022-11-30T17:23:17.185Z,16.70
2022-11-30T17:25:47.172Z,26.40
2022-11-30T17:28:15.343Z,17.03
2022-11-30T17:30:43.668Z,16.93
2022-11-30T17:33:11.881Z,22.87
2022-11-30T17:35:40.803Z,19.30
2022-11-30T17:38:10.225Z,24.87
2022-11-30T17:40:41.877Z,22.80
2022-11-30T17:43:10.137Z,41.10
2022-11-30T17:45:41.225Z,22.60
2022-11-30T17:48:09.446Z,18.10
2022-11-30T17:50:39.497Z,20.90
2022-11-30T17:53:12.995Z,21.53
2022-11-30T17:55:43.573Z,19.87
2022-11-30T17:58:11.765Z,25.43
2022-11-30T18:00:39.951Z,20.90
2022-11-30T18:03:08.428Z,16.87
2022-11-30T18:05:36.668Z,18.33
2022-11-30T18:08:05.400Z,22.33
2022-11-30T18:10:34.989Z,18.23
2022-11-30T18:13:03.139Z,18.60
2022-11-30T18:15:31.394Z,14.97
2022-11-30T18:18:01.238Z,17.50
2022-11-30T18:20:29.687Z,17.40
2022-11-30T18:22:57.925Z,19.67
2022-11-30T18:25:26.061Z,20.70
2022-11-30T18:27:55.604Z,25.73
2022-11-30T18:30:23.853Z,25.87
2022-11-30T18:32:52.601Z,24.67
2022-11-30T18:35:20.840Z,31.00
2022-11-30T18:37:48.970Z,22.60
2022-11-30T18:40:17.928Z,23.33
2022-11-30T18:42:49.378Z,21.30
2022-11-30T18:45:19.145Z,23.60
2022-11-30T18:47:47.471Z,20.73
2022-11-30T18:50:15.674Z,21.60
2022-11-30T18:52:43.839Z,19.17
2022-11-30T18:55:11.990Z,20.30
2022-11-30T18:57:40.103Z,18.23
2022-11-30T19:00:10.300Z,21.37
2022-11-30T19:02:39.891Z,19.47
2022-11-30T19:05:13.322Z,19.67
2022-11-30T19:07:41.978Z,18.83
2022-11-30T19:10:11.130Z,18.47
2022-11-30T19:12:39.256Z,17.50
2022-11-30T19:15:08.778Z,19.67
2022-11-30T19:17:38.929Z,22.33
2022-11-30T19:20:08.912Z,18.93
2022-11-30T19:22:37.204Z,23.00
2022-11-30T19:25:06.651Z,24.70
2022-11-30T19:27:35.878Z,27.43
2022-11-30T19:30:05.787Z,22.33
2022-11-30T19:32:34.527Z,20.60
2022-11-30T19:35:04.319Z,23.23
2022-11-30T19:37:32.525Z,24.67
2022-11-30T19:40:00.672Z,25.77
2022-11-30T19:42:31.419Z,61.63
2022-11-30T19:44:59.590Z,22.20
2022-11-30T19:47:27.968Z,18.33
2022-11-30T19:49:56.102Z,21.23
2022-11-30T19:52:25.626Z,19.63
2022-11-30T19:54:54.143Z,20.33
2022-11-30T19:57:22.515Z,19.97
2022-11-30T19:59:50.650Z,20.10
2022-11-30T20:02:18.903Z,15.90
2022-11-30T20:04:47.422Z,14.20
2022-11-30T20:07:15.892Z,19.33
2022-11-30T20:09:45.515Z,13.40
2022-11-30T20:12:13.680Z,16.60
2022-11-30T20:14:41.833Z,14.70
2022-11-30T20:17:10.039Z,21.33
2022-11-30T20:19:38.360Z,18.00
2022-11-30T20:22:09.358Z,26.50
2022-11-30T20:24:38.195Z,18.37
2022-11-30T20:27:07.731Z,18.80
2022-11-30T20:29:36.155Z,15.33
2022-11-30T20:32:06.131Z,19.17
2022-11-30T20:34:40.986Z,15.63
2022-11-30T20:37:11.816Z,20.10
2022-11-30T20:39:45.799Z,16.10
2022-11-30T20:42:15.951Z,14.17
2022-11-30T20:44:44.203Z,23.90
2022-11-30T20:47:12.549Z,16.60
2022-11-30T20:49:40.732Z,18.67
2022-11-30T20:52:08.998Z,21.13
2022-11-30T20:54:37.202Z,19.73
2022-11-30T20:57:07.882Z,20.53
2022-11-30T20:59:37.647Z,18.63
2022-11-30T21:02:06.053Z,16.40
2022-11-30T21:04:34.318Z,17.90
2022-11-30T21:07:02.576Z,19.10
2022-11-30T21:09:30.906Z,21.50
2022-11-30T21:11:59.193Z,18.50
2022-11-30T21:14:27.614Z,17.20
2022-11-30T21:16:57.166Z,19.63
2022-11-30T21:19:25.875Z,20.20
2022-11-30T21:21:55.442Z,22.70
2022-11-30T21:24:23.936Z,25.40
2022-11-30T21:26:52.164Z,22.27
2022-11-30T21:29:20.364Z,25.97
2022-11-30T21:31:48.572Z,25.63
2022-11-30T21:34:18.713Z,31.20
2022-11-30T21:36:47.122Z,22.63
2022-11-30T21:39:17.103Z,27.27
2022-11-30T21:41:45.464Z,19.83
2022-11-30T21:44:16.301Z,27.70
2022-11-30T21:46:46.509Z,22.73
2022-11-30T21:49:17.699Z,25.10
2022-11-30T21:51:46.058Z,26.00
2022-11-30T21:54:14.839Z,23.70
2022-11-30T21:56:44.670Z,27.43
2022-11-30T21:59:15.546Z,23.73
2022-11-30T22:01:44.792Z,22.60
2022-11-30T22:04:17.058Z,23.83
2022-11-30T22:06:45.384Z,29.17
2022-11-30T22:09:15.943Z,26.87
2022-11-30T22:11:46.033Z,55.23
2022-11-30T22:14:17.006Z,28.30
2022-11-30T22:16:45.696Z,31.33
2022-11-30T22:19:14.321Z,30.30
2022-11-30T22:21:49.739Z,28.60
2022-11-30T22:24:18.816Z,35.23
2022-11-30T22:26:48.944Z,33.07
2022-11-30T22:29:19.903Z,30.33
2022-11-30T22:31:51.264Z,28.77
2022-11-30T22:34:20.163Z,28.00
2022-11-30T22:36:49.717Z,30.10
2022-11-30T22:39:19.942Z,30.10
2022-11-30T22:41:55.049Z,29.40
2022-11-30T22:44:25.587Z,31.50
2022-11-30T22:46:53.836Z,27.00
2022-11-30T22:49:22.301Z,33.10
2022-11-30T22:51:52.180Z,28.70
2022-11-30T22:54:20.485Z,29.67
2022-11-30T22:56:48.725Z,29.47
2022-11-30T22:59:17.466Z,35.30
2022-11-30T23:01:47.639Z,32.03
2022-11-30T23:04:18.341Z,29.83
2022-11-30T23:06:48.438Z,33.13
2022-11-30T23:09:22.308Z,31.07
2022-11-30T23:11:51.759Z,34.10
2022-11-30T23:14:20.285Z,32.03
2022-11-30T23:16:49.019Z,29.97
2022-11-30T23:19:18.193Z,34.10
2022-11-30T23:21:46.735Z,32.20
2022-11-30T23:24:20.553Z,28.87
2022-11-30T23:26:49.306Z,32.23
2022-11-30T23:29:18.954Z,35.53
2022-11-30T23:31:48.759Z,32.17
2022-11-30T23:34:19.906Z,30.00
2022-11-30T23:36:48.927Z,35.83
2022-11-30T23:39:20.812Z,30.90
2022-11-30T23:41:49.532Z,29.90
2022-11-30T23:44:18.151Z,33.47
2022-11-30T23:46:46.607Z,28.80
2022-11-30T23:49:15.198Z,32.07
2022-11-30T23:51:43.769Z,31.80
2022-11-30T23:54:11.943Z,32.00
2022-11-30T23:56:41.446Z,30.47
2022-11-30T23:59:09.616Z,34.60
